Time;durP1;ratioP1;P1;durP2;ratioP2;P2;SDS_P1;SDS_P2;PMS_P1;PMS_P2;Temp;Humidity;BMP_temperature;BMP_pressure;BME280_temperature;BME280_humidity;BME280_pressure;Samples;Min_cycle;Max_cycle;Signal;HPM_P1;HPM_P2
2023/06/15 00:00:14;;;;;;;5.78;1.05;;;19.10;99.90;;;;;;4980312;28;20068;-35
2023/06/15 00:02:40;;;;;;;2.40;1.15;;;19.10;99.90;;;;;;4984247;28;20066;-35
2023/06/15 00:05:07;;;;;;;3.65;1.48;;;19.10;99.90;;;;;;4983855;28;20166;-35
2023/06/15 00:07:33;;;;;;;2.10;0.93;;;19.00;99.90;;;;;;4983682;28;20503;-35
2023/06/15 00:09:58;;;;;;;3.20;1.20;;;19.00;99.90;;;;;;4985882;28;20113;-35
2023/06/15 00:12:24;;;;;;;3.42;1.00;;;19.00;99.90;;;;;;4981367;28;20054;-35
2023/06/15 00:14:50;;;;;;;3.45;1.08;;;19.00;99.90;;;;;;4987691;28;20054;-35
2023/06/15 00:17:15;;;;;;;2.72;1.00;;;19.00;99.90;;;;;;4982765;28;20104;-35
2023/06/15 00:19:41;;;;;;;3.30;0.98;;;18.90;99.90;;;;;;4953993;28;20049;-35
2023/06/15 00:22:15;;;;;;;3.13;1.10;;;18.80;99.90;;;;;;4984497;28;20052;-35
2023/06/15 00:24:43;;;;;;;2.92;1.30;;;18.80;99.90;;;;;;4979012;28;20133;-35
2023/06/15 00:27:10;;;;;;;2.90;1.27;;;18.70;99.90;;;;;;4981572;28;20070;-35
2023/06/15 00:29:36;;;;;;;4.15;1.85;;;18.70;99.90;;;;;;4988718;28;20555;-35
2023/06/15 00:32:04;;;;;;;3.75;1.63;;;18.70;99.90;;;;;;4986293;28;20073;-35
2023/06/15 00:34:30;;;;;;;6.72;1.67;;;18.60;99.90;;;;;;4987165;28;20050;-34
2023/06/15 00:36:55;;;;;;;4.18;1.70;;;18.50;99.90;;;;;;4986539;28;20054;-35
2023/06/15 00:39:21;;;;;;;5.80;1.90;;;18.50;99.90;;;;;;4981511;28;20050;-35
2023/06/15 00:41:47;;;;;;;5.40;1.60;;;18.50;99.90;;;;;;4987250;28;20055;-35
2023/06/15 00:44:12;;;;;;;3.53;1.55;;;18.40;99.90;;;;;;4981355;28;20065;-34
2023/06/15 00:46:38;;;;;;;3.50;1.52;;;18.40;99.90;;;;;;4984926;28;20047;-35
2023/06/15 00:49:05;;;;;;;5.15;1.58;;;18.30;99.90;;;;;;4985906;28;20046;-34
2023/06/15 00:51:34;;;;;;;3.00;1.10;;;18.30;99.90;;;;;;4988675;28;20697;-35
2023/06/15 00:54:00;;;;;;;3.38;1.50;;;18.20;99.90;;;;;;4978150;28;20491;-35
2023/06/15 00:56:29;;;;;;;6.07;1.40;;;18.20;99.90;;;;;;4979720;28;20057;-34
2023/06/15 00:58:55;;;;;;;7.90;1.55;;;18.10;99.90;;;;;;4986967;28;20050;-35
2023/06/15 01:01:23;;;;;;;3.15;1.70;;;18.10;99.90;;;;;;4984963;28;20050;-35
2023/06/15 01:03:49;;;;;;;7.53;2.05;;;18.00;99.90;;;;;;4987965;28;20065;-35
2023/06/15 01:06:16;;;;;;;3.10;1.48;;;18.00;99.90;;;;;;4987047;28;20049;-35
2023/06/15 01:08:45;;;;;;;2.75;1.55;;;17.90;99.90;;;;;;4982585;28;20448;-35
2023/06/15 01:11:13;;;;;;;5.78;1.75;;;17.90;99.90;;;;;;4986673;28;20050;-35
2023/06/15 01:13:39;;;;;;;4.68;1.75;;;17.80;99.90;;;;;;4982320;28;20101;-34
2023/06/15 01:16:10;;;;;;;4.85;1.77;;;17.80;99.90;;;;;;4978964;28;20805;-35
2023/06/15 01:18:41;;;;;;;3.13;1.60;;;17.80;99.90;;;;;;4983100;28;20530;-35
2023/06/15 01:21:08;;;;;;;2.95;1.38;;;17.70;99.90;;;;;;4981265;28;20416;-35
2023/06/15 01:23:49;;;;;;;3.22;1.48;;;17.70;99.90;;;;;;4982780;28;20050;-35
2023/06/15 01:26:17;;;;;;;3.95;1.70;;;17.70;99.90;;;;;;4983922;28;20086;-35
2023/06/15 01:28:49;;;;;;;3.70;1.60;;;17.60;99.90;;;;;;4988608;28;20108;-35
2023/06/15 01:31:17;;;;;;;3.10;1.58;;;17.60;99.90;;;;;;4959788;28;20058;-35
2023/06/15 01:33:50;;;;;;;3.30;1.50;;;17.50;99.90;;;;;;4980933;28;20463;-35
2023/06/15 01:36:16;;;;;;;3.88;1.40;;;17.50;99.90;;;;;;4981789;28;20556;-35
2023/06/15 01:38:48;;;;;;;21.15;1.90;;;17.40;99.90;;;;;;4977936;28;20051;-36
2023/06/15 01:41:16;;;;;;;8.18;1.83;;;17.40;99.90;;;;;;4980222;28;20058;-35
2023/06/15 01:43:41;;;;;;;3.33;1.75;;;17.40;99.90;;;;;;4979242;28;20416;-35
2023/06/15 01:46:08;;;;;;;3.72;1.73;;;17.40;99.90;;;;;;4981194;28;20054;-35
2023/06/15 01:48:34;;;;;;;5.95;1.70;;;17.30;99.90;;;;;;4985811;28;20050;-35
2023/06/15 01:51:02;;;;;;;5.57;1.80;;;17.30;99.90;;;;;;4988141;28;20049;-35
2023/06/15 01:53:28;;;;;;;4.95;1.70;;;17.20;99.90;;;;;;4981002;28;20046;-36
2023/06/15 01:55:54;;;;;;;3.63;1.55;;;17.20;99.90;;;;;;4984295;28;20061;-36
2023/06/15 01:58:20;;;;;;;2.75;1.33;;;17.20;99.90;;;;;;4981654;28;21860;-36
2023/06/15 02:00:46;;;;;;;4.05;1.83;;;17.10;99.90;;;;;;4981614;28;20050;-36
2023/06/15 02:03:12;;;;;;;3.97;1.40;;;17.10;99.90;;;;;;4979771;28;20062;-36
2023/06/15 02:05:39;;;;;;;4.40;1.42;;;17.10;99.90;;;;;;4983896;28;20142;-35
2023/06/15 02:08:09;;;;;;;3.35;1.80;;;17.10;99.90;;;;;;4981435;28;20179;-36
2023/06/15 02:10:35;;;;;;;4.47;1.40;;;17.00;99.90;;;;;;4981579;28;20058;-36
2023/06/15 02:13:01;;;;;;;3.53;1.40;;;17.00;99.90;;;;;;4977403;28;20049;-36
2023/06/15 02:15:28;;;;;;;4.90;1.83;;;17.00;99.90;;;;;;4976475;28;20639;-35
2023/06/15 02:17:58;;;;;;;6.70;1.63;;;17.00;99.90;;;;;;4980365;28;20054;-36
2023/06/15 02:20:25;;;;;;;3.58;1.80;;;17.00;99.90;;;;;;4965906;28;20057;-35
2023/06/15 02:22:52;;;;;;;4.45;1.70;;;16.90;99.90;;;;;;4981152;28;20082;-36
2023/06/15 02:25:19;;;;;;;5.32;1.60;;;16.90;99.90;;;;;;4979074;28;20108;-35
2023/06/15 02:27:45;;;;;;;3.50;1.63;;;16.90;99.90;;;;;;4982323;28;20050;-36
2023/06/15 02:30:12;;;;;;;2.92;1.30;;;16.90;99.90;;;;;;4976262;28;20047;-36
2023/06/15 02:32:39;;;;;;;3.40;1.70;;;16.90;99.90;;;;;;4978691;28;20053;-35
2023/06/15 02:35:10;;;;;;;4.20;1.50;;;16.80;99.90;;;;;;4977634;28;20043;-35
2023/06/15 02:37:37;;;;;;;3.72;1.58;;;16.80;99.90;;;;;;4978396;28;20054;-35
2023/06/15 02:40:08;;;;;;;3.65;1.80;;;16.80;99.90;;;;;;4980775;28;20138;-36
2023/06/15 02:42:35;;;;;;;5.10;1.77;;;16.80;99.90;;;;;;4980534;28;20058;-36
2023/06/15 02:45:02;;;;;;;4.55;1.65;;;16.70;99.90;;;;;;4981793;28;20297;-36
2023/06/15 02:47:29;;;;;;;4.38;1.80;;;16.70;99.90;;;;;;4984918;28;20132;-36
2023/06/15 02:49:55;;;;;;;3.75;1.85;;;16.70;99.90;;;;;;4981704;28;20065;-35
2023/06/15 02:52:21;;;;;;;3.42;1.67;;;16.70;99.90;;;;;;4984076;28;20058;-35
2023/06/15 02:54:46;;;;;;;5.93;2.10;;;16.70;99.90;;;;;;4981864;28;20051;-35
2023/06/15 02:57:12;;;;;;;3.30;1.80;;;16.60;99.90;;;;;;4979209;28;20082;-36
2023/06/15 02:59:40;;;;;;;5.00;2.08;;;16.50;99.90;;;;;;4974701;28;20062;-35
2023/06/15 03:02:06;;;;;;;4.47;1.60;;;16.50;99.90;;;;;;4978225;28;20504;-34
2023/06/15 03:04:44;;;;;;;3.15;1.55;;;16.50;99.90;;;;;;4984932;28;20054;-34
2023/06/15 03:07:17;;;;;;;3.80;1.73;;;16.50;99.90;;;;;;4983806;28;20060;-34
2023/06/15 03:09:46;;;;;;;3.65;1.70;;;16.50;99.90;;;;;;4983831;28;20054;-35
2023/06/15 03:12:11;;;;;;;6.30;1.75;;;16.40;99.90;;;;;;4976064;28;20095;-35
2023/06/15 03:14:37;;;;;;;3.65;1.48;;;16.40;99.90;;;;;;4980741;28;20046;-35
2023/06/15 03:17:04;;;;;;;3.03;1.45;;;16.40;99.90;;;;;;4982087;28;20054;-35
2023/06/15 03:19:30;;;;;;;4.22;1.60;;;16.40;99.90;;;;;;4982066;28;20054;-35
2023/06/15 03:21:57;;;;;;;2.90;1.50;;;16.30;99.90;;;;;;4974713;28;20507;-35
2023/06/15 03:24:25;;;;;;;4.65;1.92;;;16.30;99.90;;;;;;4977615;28;20046;-35
2023/06/15 03:26:51;;;;;;;6.63;2.00;;;16.30;99.90;;;;;;4980050;28;20488;-35
2023/06/15 03:29:17;;;;;;;5.95;1.77;;;16.30;99.90;;;;;;4980299;28;20050;-35
2023/06/15 03:31:42;;;;;;;3.67;1.90;;;16.30;99.90;;;;;;4984031;28;20061;-35
2023/06/15 03:34:09;;;;;;;4.03;1.40;;;16.30;99.90;;;;;;4984418;28;20046;-35
2023/06/15 03:36:35;;;;;;;5.45;1.75;;;16.30;99.90;;;;;;4976796;28;20145;-36
2023/06/15 03:39:04;;;;;;;5.85;1.73;;;16.30;99.90;;;;;;4982690;28;20097;-36
2023/06/15 03:41:30;;;;;;;4.03;2.00;;;16.30;99.90;;;;;;4982667;28;20054;-35
2023/06/15 03:43:56;;;;;;;2.47;1.45;;;16.30;99.90;;;;;;4986919;28;20415;-36
2023/06/15 03:46:22;;;;;;;3.05;1.50;;;16.20;99.90;;;;;;4985236;28;20061;-35
2023/06/15 03:48:49;;;;;;;4.18;2.00;;;16.20;99.90;;;;;;4986461;28;20389;-35
2023/06/15 03:51:14;;;;;;;3.92;1.98;;;16.30;99.90;;;;;;4983216;28;20058;-35
2023/06/15 03:53:43;;;;;;;4.85;2.00;;;16.20;99.90;;;;;;4986452;28;20057;-36
2023/06/15 03:56:09;;;;;;;4.80;2.08;;;16.30;99.90;;;;;;4983080;28;20496;-36
2023/06/15 03:58:35;;;;;;;4.25;1.77;;;16.30;99.90;;;;;;4983222;28;20065;-35
2023/06/15 04:01:04;;;;;;;12.48;2.47;;;16.30;99.90;;;;;;4984881;28;20043;-35
2023/06/15 04:03:36;;;;;;;4.45;2.30;;;16.30;99.90;;;;;;4984886;28;20069;-35
2023/06/15 04:06:05;;;;;;;3.95;2.10;;;16.20;99.90;;;;;;4980569;28;20732;-35
2023/06/15 04:08:35;;;;;;;6.82;1.83;;;16.30;99.90;;;;;;4984923;28;20060;-36
2023/06/15 04:11:01;;;;;;;4.32;1.77;;;16.20;99.90;;;;;;4980366;28;20090;-35
2023/06/15 04:13:27;;;;;;;3.80;2.00;;;16.20;99.90;;;;;;4986500;28;20053;-35
2023/06/15 04:15:53;;;;;;;6.30;2.20;;;16.20;99.90;;;;;;4979967;28;20054;-35
2023/06/15 04:18:23;;;;;;;5.93;2.60;;;16.20;99.90;;;;;;4982848;28;20510;-36
2023/06/15 04:20:49;;;;;;;4.10;1.83;;;16.30;99.90;;;;;;4967935;28;20054;-36
2023/06/15 04:23:15;;;;;;;5.47;1.90;;;16.30;99.90;;;;;;4981320;28;20054;-35
2023/06/15 04:25:40;;;;;;;6.10;3.00;;;16.30;99.90;;;;;;4983221;28;20085;-35
2023/06/15 04:28:12;;;;;;;4.03;2.15;;;16.30;99.90;;;;;;4984150;28;20038;-36
2023/06/15 04:30:44;;;;;;;3.92;1.90;;;16.30;99.90;;;;;;4989213;28;20071;-35
2023/06/15 04:33:13;;;;;;;6.03;1.88;;;16.30;99.90;;;;;;4977227;28;20065;-35
2023/06/15 04:35:48;;;;;;;6.97;2.42;;;16.30;99.90;;;;;;4986290;28;20074;-35
2023/06/15 04:38:14;;;;;;;3.60;1.90;;;16.30;99.90;;;;;;4982279;28;20058;-36
2023/06/15 04:40:46;;;;;;;6.38;2.13;;;16.30;99.90;;;;;;4981106;28;20445;-35
2023/06/15 04:43:11;;;;;;;6.50;2.00;;;16.40;99.90;;;;;;4978857;28;20491;-36
2023/06/15 04:45:37;;;;;;;4.97;1.67;;;16.40;99.90;;;;;;4988453;28;20059;-36
2023/06/15 04:48:03;;;;;;;9.00;3.10;;;16.40;99.90;;;;;;4985822;28;20042;-35
2023/06/15 04:50:32;;;;;;;3.28;1.58;;;16.50;99.90;;;;;;4982508;28;20172;-36
2023/06/15 04:52:58;;;;;;;4.93;2.28;;;16.50;99.90;;;;;;4980876;28;20137;-35
2023/06/15 04:55:24;;;;;;;3.03;1.70;;;16.50;99.90;;;;;;4982124;28;20116;-35
2023/06/15 04:57:49;;;;;;;4.30;2.25;;;16.60;99.90;;;;;;4968138;28;20050;-35
2023/06/15 05:00:16;;;;;;;3.50;2.08;;;16.70;99.90;;;;;;4978158;28;20054;-37
2023/06/15 05:02:42;;;;;;;27.02;4.25;;;16.70;99.90;;;;;;4987467;28;20112;-36
2023/06/15 05:05:08;;;;;;;2.85;2.00;;;16.80;99.90;;;;;;4985216;28;20440;-36
2023/06/15 05:07:33;;;;;;;4.03;1.95;;;16.80;99.90;;;;;;4983794;28;20477;-36
2023/06/15 05:09:59;;;;;;;2.90;1.27;;;16.90;99.90;;;;;;4981327;28;20104;-36
2023/06/15 05:12:25;;;;;;;4.47;1.80;;;16.90;99.90;;;;;;4963969;28;20057;-35
2023/06/15 05:14:50;;;;;;;4.60;1.45;;;17.00;99.90;;;;;;4985291;28;20431;-35
2023/06/15 05:17:16;;;;;;;3.38;1.55;;;17.10;99.90;;;;;;4983778;28;20054;-35
2023/06/15 05:19:42;;;;;;;3.72;2.17;;;17.20;99.90;;;;;;4985099;28;20459;-35
2023/06/15 05:22:07;;;;;;;3.42;1.80;;;17.20;99.90;;;;;;4985197;28;20476;-37
2023/06/15 05:24:34;;;;;;;3.50;1.70;;;17.30;99.90;;;;;;4976931;28;20050;-36
2023/06/15 05:27:02;;;;;;;4.50;1.95;;;17.40;99.90;;;;;;4981783;28;20191;-35
2023/06/15 05:29:27;;;;;;;5.88;1.80;;;17.50;99.90;;;;;;4965919;28;20052;-35
2023/06/15 05:31:55;;;;;;;3.92;1.92;;;17.60;99.90;;;;;;4980425;28;20457;-36
2023/06/15 05:34:21;;;;;;;3.17;1.63;;;17.60;99.90;;;;;;4979323;28;20960;-35
2023/06/15 05:36:47;;;;;;;3.88;1.77;;;17.70;99.90;;;;;;4979683;28;20527;-36
2023/06/15 05:39:12;;;;;;;8.07;2.10;;;17.80;99.90;;;;;;4964959;28;20050;-36
2023/06/15 05:41:38;;;;;;;6.13;2.25;;;17.90;99.90;;;;;;4980844;28;20089;-36
2023/06/15 05:44:04;;;;;;;4.35;2.05;;;18.00;99.90;;;;;;4982980;28;20061;-36
2023/06/15 05:46:30;;;;;;;3.70;1.88;;;18.10;99.90;;;;;;4984781;28;20046;-36
2023/06/15 05:48:55;;;;;;;5.03;1.85;;;18.20;99.90;;;;;;4980722;28;20057;-36
2023/06/15 05:51:22;;;;;;;6.15;2.05;;;18.30;99.90;;;;;;4978729;28;20495;-36
2023/06/15 05:53:47;;;;;;;4.78;1.48;;;18.40;99.90;;;;;;4976938;28;20129;-37
2023/06/15 05:56:13;;;;;;;4.43;1.70;;;18.50;99.90;;;;;;4976311;28;20093;-37
2023/06/15 05:58:38;;;;;;;4.50;2.20;;;18.60;99.90;;;;;;4974554;28;20057;-37
2023/06/15 06:01:05;;;;;;;3.95;1.95;;;18.70;99.90;;;;;;4977446;28;20117;-36
2023/06/15 06:03:31;;;;;;;3.25;1.75;;;18.80;99.90;;;;;;4976067;28;20437;-36
2023/06/15 06:05:56;;;;;;;5.82;1.70;;;18.90;99.90;;;;;;4974981;28;20059;-36
2023/06/15 06:08:23;;;;;;;6.45;2.20;;;19.00;99.90;;;;;;4972874;28;20690;-35
2023/06/15 06:10:49;;;;;;;4.72;1.45;;;19.00;99.90;;;;;;4973366;28;20058;-36
2023/06/15 06:13:15;;;;;;;4.20;1.40;;;19.10;99.90;;;;;;4970926;28;20055;-36
2023/06/15 06:15:41;;;;;;;3.03;1.40;;;19.30;99.90;;;;;;4978127;28;20086;-36
2023/06/15 06:18:06;;;;;;;3.90;1.48;;;19.40;99.90;;;;;;4976645;28;20054;-35
2023/06/15 06:20:32;;;;;;;5.13;2.08;;;19.40;99.90;;;;;;4973541;28;20097;-36
2023/06/15 06:22:58;;;;;;;6.63;2.00;;;19.50;99.90;;;;;;4979431;28;20042;-35
2023/06/15 06:25:24;;;;;;;4.63;1.38;;;19.70;99.90;;;;;;4976204;28;20050;-36
2023/06/15 06:27:49;;;;;;;3.85;1.63;;;19.80;99.90;;;;;;4981858;28;20416;-37
2023/06/15 06:30:15;;;;;;;3.97;1.27;;;19.90;99.90;;;;;;4980199;28;20046;-36
2023/06/15 06:32:41;;;;;;;3.78;1.25;;;20.00;99.90;;;;;;4977443;28;20401;-37
2023/06/15 06:35:06;;;;;;;8.55;1.50;;;20.10;99.90;;;;;;4981307;28;20554;-36
2023/06/15 06:37:32;;;;;;;3.42;1.38;;;20.20;99.90;;;;;;4969009;28;20077;-36
2023/06/15 06:39:58;;;;;;;3.60;1.15;;;20.30;99.90;;;;;;4980130;28;20691;-36
2023/06/15 06:42:24;;;;;;;3.22;1.10;;;20.40;99.90;;;;;;4977737;28;20069;-36
2023/06/15 06:44:49;;;;;;;11.38;1.50;;;20.50;99.90;;;;;;4976893;28;22317;-36
2023/06/15 06:47:15;;;;;;;3.88;1.25;;;20.60;99.90;;;;;;4971451;28;20058;-36
2023/06/15 06:49:41;;;;;;;4.15;1.33;;;20.70;99.90;;;;;;4980346;28;20049;-36
2023/06/15 06:52:07;;;;;;;5.30;1.23;;;20.80;99.90;;;;;;4975975;28;20424;-36
2023/06/15 06:54:32;;;;;;;4.70;1.33;;;20.90;99.90;;;;;;4974631;28;20050;-35
2023/06/15 06:56:58;;;;;;;4.18;1.27;;;21.00;99.90;;;;;;4966907;28;20042;-35
2023/06/15 06:59:25;;;;;;;3.47;1.05;;;21.10;99.90;;;;;;4985402;28;20069;-35
2023/06/15 07:01:51;;;;;;;5.38;1.30;;;21.30;99.90;;;;;;4978244;28;20058;-35
2023/06/15 07:04:17;;;;;;;2.72;1.02;;;21.40;99.90;;;;;;4973563;28;20491;-35
2023/06/15 07:06:42;;;;;;;4.10;1.20;;;21.50;99.90;;;;;;4980457;28;20050;-35
2023/06/15 07:09:08;;;;;;;4.13;1.50;;;21.60;99.90;;;;;;4982373;28;20065;-35
2023/06/15 07:11:34;;;;;;;4.93;1.10;;;21.70;99.90;;;;;;4972551;28;20067;-35
2023/06/15 07:14:03;;;;;;;3.05;1.20;;;21.70;99.90;;;;;;4984120;28;20076;-35
2023/06/15 07:16:31;;;;;;;6.22;1.10;;;21.80;99.90;;;;;;4984395;28;20403;-35
2023/06/15 07:18:58;;;;;;;2.25;1.08;;;21.90;99.90;;;;;;4977126;28;20061;-35
2023/06/15 07:21:23;;;;;;;4.40;1.25;;;22.00;99.90;;;;;;4982619;28;20054;-35
2023/06/15 07:23:49;;;;;;;3.28;1.30;;;22.00;99.90;;;;;;4977169;28;20073;-35
2023/06/15 07:26:15;;;;;;;2.20;1.30;;;22.10;99.90;;;;;;4985234;28;20512;-35
2023/06/15 07:28:40;;;;;;;4.57;1.20;;;22.20;99.90;;;;;;4954724;28;20412;-35
2023/06/15 07:31:06;;;;;;;3.05;1.40;;;22.30;99.90;;;;;;4981185;28;20081;-35
2023/06/15 07:33:32;;;;;;;3.80;0.98;;;22.40;99.90;;;;;;4982130;28;20054;-35
2023/06/15 07:35:57;;;;;;;3.88;1.20;;;22.50;99.90;;;;;;4980003;28;20078;-36
2023/06/15 07:38:23;;;;;;;5.70;2.17;;;22.60;99.90;;;;;;4981587;28;20503;-34
2023/06/15 07:40:49;;;;;;;4.00;1.65;;;22.70;99.90;;;;;;4980398;28;20092;-37
2023/06/15 07:43:15;;;;;;;7.78;1.50;;;22.80;99.90;;;;;;4982704;28;20050;-35
2023/06/15 07:45:44;;;;;;;5.63;1.30;;;22.80;99.90;;;;;;4978774;28;20081;-35
2023/06/15 07:48:10;;;;;;;2.42;1.00;;;22.80;99.90;;;;;;4959498;28;20066;-36
2023/06/15 07:50:36;;;;;;;3.75;1.10;;;22.90;99.90;;;;;;4982263;28;20145;-37
2023/06/15 07:53:02;;;;;;;4.68;1.92;;;23.00;99.90;;;;;;4981093;28;20478;-36
2023/06/15 07:55:27;;;;;;;5.38;1.60;;;23.00;99.90;;;;;;4977471;28;20054;-35
2023/06/15 07:57:53;;;;;;;3.65;1.17;;;23.10;99.90;;;;;;4975079;28;20121;-36
2023/06/15 08:00:19;;;;;;;2.28;1.10;;;23.20;99.90;;;;;;4973357;28;20078;-37
2023/06/15 08:02:45;;;;;;;5.30;1.10;;;23.30;99.90;;;;;;4973514;28;20175;-36
2023/06/15 08:05:11;;;;;;;4.13;1.13;;;23.40;99.90;;;;;;4979371;28;20211;-37
2023/06/15 08:07:37;;;;;;;5.53;1.58;;;23.50;99.90;;;;;;4981108;28;20050;-36
2023/06/15 08:10:03;;;;;;;2.10;1.10;;;23.50;99.90;;;;;;4975850;28;20061;-35
2023/06/15 08:12:29;;;;;;;2.00;1.20;;;23.60;99.90;;;;;;4974633;28;20352;-35
2023/06/15 08:14:55;;;;;;;8.05;1.42;;;23.70;99.90;;;;;;4974948;28;20055;-35
2023/06/15 08:17:20;;;;;;;4.53;1.50;;;23.80;99.90;;;;;;4984748;28;20058;-35
2023/06/15 08:19:47;;;;;;;4.47;1.40;;;23.90;99.90;;;;;;4979069;28;20426;-36
2023/06/15 08:22:13;;;;;;;6.35;1.45;;;24.00;99.90;;;;;;4981786;28;20546;-36
2023/06/15 08:24:39;;;;;;;2.70;1.20;;;24.00;99.90;;;;;;4980510;28;20057;-37
2023/06/15 08:27:05;;;;;;;3.85;1.48;;;24.10;99.90;;;;;;4978620;28;20054;-36
2023/06/15 08:29:31;;;;;;;2.53;1.17;;;24.10;99.90;;;;;;4985835;28;20054;-36
2023/06/15 08:31:57;;;;;;;4.32;1.20;;;24.20;99.90;;;;;;4983168;28;20046;-36
2023/06/15 08:34:22;;;;;;;5.35;1.73;;;24.30;99.90;;;;;;4984230;28;20437;-37
2023/06/15 08:36:49;;;;;;;3.08;1.20;;;24.30;99.90;;;;;;4981158;28;20064;-35
2023/06/15 08:39:15;;;;;;;5.00;1.40;;;24.30;99.90;;;;;;4985150;28;20169;-36
2023/06/15 08:41:44;;;;;;;3.45;1.83;;;24.30;99.90;;;;;;4981480;28;20133;-36
2023/06/15 08:44:10;;;;;;;3.28;1.35;;;24.30;99.90;;;;;;4983090;28;20066;-35
2023/06/15 08:46:36;;;;;;;4.15;1.23;;;24.40;99.90;;;;;;4988621;28;20408;-35
2023/06/15 08:49:02;;;;;;;3.67;1.15;;;24.50;99.90;;;;;;4986264;28;20113;-35
2023/06/15 08:51:28;;;;;;;3.00;1.63;;;24.60;99.90;;;;;;4989848;28;20082;-36
2023/06/15 08:53:55;;;;;;;4.45;1.20;;;24.60;99.90;;;;;;4985988;28;20078;-36
2023/06/15 08:56:21;;;;;;;4.65;1.33;;;24.70;99.90;;;;;;4983609;28;20061;-36
2023/06/15 08:58:50;;;;;;;4.90;1.30;;;24.70;99.90;;;;;;4982040;28;20061;-36
2023/06/15 09:01:25;;;;;;;3.13;1.20;;;24.80;99.90;;;;;;4975549;28;20492;-35
2023/06/15 09:03:53;;;;;;;3.38;1.52;;;24.80;99.90;;;;;;4982563;28;20050;-35
2023/06/15 09:06:20;;;;;;;4.72;1.50;;;24.90;99.90;;;;;;4989435;28;20519;-36
2023/06/15 09:08:46;;;;;;;2.60;1.13;;;25.00;99.90;;;;;;4983720;28;20095;-35
2023/06/15 09:11:12;;;;;;;3.78;1.60;;;25.00;99.90;;;;;;4984665;28;20547;-36
2023/06/15 09:13:38;;;;;;;1.88;1.20;;;25.10;99.90;;;;;;4980307;28;20531;-36
2023/06/15 09:16:07;;;;;;;3.20;1.20;;;25.10;99.90;;;;;;4976410;28;20050;-36
2023/06/15 09:18:45;;;;;;;2.85;1.10;;;25.20;99.90;;;;;;4984318;28;20091;-37
2023/06/15 09:21:13;;;;;;;2.08;0.90;;;25.30;99.90;;;;;;4985766;28;20062;-37
2023/06/15 09:23:43;;;;;;;2.97;1.30;;;25.40;99.90;;;;;;4982321;28;20470;-36
2023/06/15 09:26:09;;;;;;;2.85;1.30;;;25.40;99.90;;;;;;4985557;28;20054;-37
2023/06/15 09:28:44;;;;;;;2.45;0.95;;;25.50;99.90;;;;;;4988081;28;20076;-37
2023/06/15 09:31:10;;;;;;;4.60;1.10;;;25.60;99.90;;;;;;4983142;28;20064;-37
2023/06/15 09:33:36;;;;;;;4.50;1.27;;;25.70;99.90;;;;;;4980280;28;20050;-37
2023/06/15 09:36:05;;;;;;;5.82;1.45;;;25.80;99.90;;;;;;4981225;28;20042;-37
2023/06/15 09:38:40;;;;;;;3.47;1.27;;;25.90;99.90;;;;;;4984458;28;20467;-37
2023/06/15 09:41:07;;;;;;;3.10;1.30;;;25.90;99.90;;;;;;4985297;28;20479;-37
2023/06/15 09:43:39;;;;;;;3.05;1.10;;;26.00;99.90;;;;;;4976617;28;20054;-37
2023/06/15 09:46:11;;;;;;;4.38;1.38;;;26.10;99.90;;;;;;4984995;28;20260;-37
2023/06/15 09:48:43;;;;;;;2.50;1.40;;;26.20;99.90;;;;;;4984312;28;20479;-37
2023/06/15 09:51:08;;;;;;;2.00;1.20;;;26.20;99.90;;;;;;4982458;28;20415;-38
2023/06/15 09:53:34;;;;;;;3.33;1.38;;;26.30;99.90;;;;;;4981978;28;20106;-36
2023/06/15 09:56:03;;;;;;;4.40;1.38;;;26.30;99.90;;;;;;4984864;28;20081;-37
2023/06/15 09:58:29;;;;;;;4.95;1.42;;;26.30;99.90;;;;;;4980489;28;20408;-36
2023/06/15 10:00:57;;;;;;;3.65;1.10;;;26.30;99.90;;;;;;4986734;28;20054;-37
2023/06/15 10:03:24;;;;;;;3.85;1.20;;;26.30;99.90;;;;;;4983444;28;20576;-37
2023/06/15 10:06:08;;;;;;;5.05;1.25;;;26.40;99.90;;;;;;4986928;28;20053;-37
2023/06/15 10:08:38;;;;;;;4.47;1.30;;;26.50;99.90;;;;;;4979559;28;20519;-37
2023/06/15 10:11:04;;;;;;;2.40;1.10;;;26.60;99.90;;;;;;4983127;28;20447;-36
2023/06/15 10:13:54;;;;;;;2.78;1.23;;;26.60;99.90;;;;;;4980262;28;20055;-35
2023/06/15 10:16:21;;;;;;;2.15;1.00;;;26.70;99.90;;;;;;4980927;28;20052;-36
2023/06/15 10:18:57;;;;;;;2.40;1.10;;;26.80;99.90;;;;;;4987881;28;20054;-36
2023/06/15 10:21:28;;;;;;;3.63;1.40;;;26.80;99.90;;;;;;4983500;28;20046;-35
2023/06/15 10:23:55;;;;;;;6.45;1.40;;;26.80;99.90;;;;;;4978153;28;20492;-35
2023/06/15 10:26:22;;;;;;;2.42;1.20;;;26.90;99.90;;;;;;4985017;28;20472;-36
2023/06/15 10:28:55;;;;;;;2.30;1.17;;;27.10;99.90;;;;;;4981132;28;20046;-36
2023/06/15 10:31:49;;;;;;;2.25;1.23;;;27.20;99.90;;;;;;4982710;28;20130;-36
2023/06/15 10:34:52;;;;;;;2.75;1.20;;;27.30;99.90;;;;;;4983119;28;20679;-35
2023/06/15 10:37:28;;;;;;;3.92;1.00;;;27.30;99.90;;;;;;4984093;28;20057;-35
2023/06/15 10:39:59;;;;;;;2.63;1.30;;;27.30;99.90;;;;;;4977260;28;20058;-36
2023/06/15 10:42:26;;;;;;;3.22;1.30;;;27.40;99.90;;;;;;4974961;28;20457;-36
2023/06/15 10:44:52;;;;;;;2.17;1.40;;;27.50;99.90;;;;;;4984343;28;20125;-35
2023/06/15 10:47:21;;;;;;;2.00;1.52;;;27.60;99.90;;;;;;4973412;28;20133;-36
2023/06/15 10:49:49;;;;;;;2.10;1.60;;;27.70;99.90;;;;;;4982778;28;20050;-35
2023/06/15 10:52:14;;;;;;;2.95;1.80;;;27.80;99.90;;;;;;4974285;28;20081;-35
2023/06/15 10:54:40;;;;;;;2.78;1.60;;;27.80;99.90;;;;;;4980378;28;20085;-35
2023/06/15 10:57:06;;;;;;;2.10;1.60;;;27.90;99.90;;;;;;4982025;28;20057;-35
2023/06/15 10:59:44;;;;;;;3.25;1.80;;;28.00;99.90;;;;;;4981558;28;20050;-36
2023/06/15 11:02:28;;;;;;;2.97;1.67;;;28.10;99.90;;;;;;4979137;28;20054;-36
2023/06/15 11:05:04;;;;;;;2.65;1.85;;;28.30;99.90;;;;;;4980379;28;20420;-35
2023/06/15 11:07:37;;;;;;;2.90;1.80;;;28.40;99.90;;;;;;4979986;28;20050;-36
2023/06/15 11:10:13;;;;;;;2.85;1.77;;;28.50;99.90;;;;;;4981091;28;20050;-35
2023/06/15 11:12:41;;;;;;;3.67;1.50;;;28.50;99.90;;;;;;4983275;28;20046;-35
2023/06/15 11:15:09;;;;;;;5.10;1.63;;;28.50;99.90;;;;;;4984311;28;20042;-35
2023/06/15 11:18:00;;;;;;;2.97;1.65;;;28.50;99.90;;;;;;4982361;28;20046;-34
2023/06/15 11:20:44;;;;;;;2.30;1.55;;;28.50;99.90;;;;;;4982045;28;20115;-35
2023/06/15 11:23:16;;;;;;;2.15;1.05;;;28.50;99.90;;;;;;4982048;28;20065;-35
2023/06/15 11:25:46;;;;;;;3.90;1.45;;;28.50;99.90;;;;;;4984372;28;20043;-36
2023/06/15 11:28:15;;;;;;;3.15;1.40;;;28.70;99.90;;;;;;4977657;28;20134;-36
2023/06/15 11:30:42;;;;;;;2.00;1.40;;;28.70;99.90;;;;;;4986574;28;20042;-36
2023/06/15 11:33:12;;;;;;;5.43;1.15;;;28.80;99.90;;;;;;4984576;28;20057;-35
2023/06/15 11:35:38;;;;;;;2.10;1.40;;;28.80;99.90;;;;;;4981994;28;20053;-35
2023/06/15 11:38:07;;;;;;;3.00;1.10;;;28.80;99.90;;;;;;4981838;28;20054;-36
2023/06/15 11:40:36;;;;;;;3.15;1.02;;;28.80;99.90;;;;;;4978552;28;20133;-36
2023/06/15 11:43:04;;;;;;;3.38;1.20;;;28.80;99.90;;;;;;4985037;28;20046;-37
2023/06/15 11:45:29;;;;;;;1.83;0.93;;;28.90;99.90;;;;;;4966456;28;20050;-36
2023/06/15 11:47:55;;;;;;;2.08;1.00;;;28.90;99.90;;;;;;4981150;28;20061;-36
2023/06/15 11:50:22;;;;;;;2.08;1.20;;;29.00;99.90;;;;;;4977956;28;20368;-36
2023/06/15 11:52:48;;;;;;;3.45;1.00;;;29.10;99.90;;;;;;4969858;28;20108;-36
2023/06/15 11:55:16;;;;;;;2.45;1.13;;;29.20;99.90;;;;;;4978778;28;20496;-35
2023/06/15 11:57:43;;;;;;;2.08;1.25;;;29.20;99.90;;;;;;4979080;28;20058;-35
2023/06/15 12:00:12;;;;;;;3.70;1.38;;;29.30;99.90;;;;;;4976611;28;20046;-36
2023/06/15 12:02:40;;;;;;;6.05;1.30;;;29.40;99.90;;;;;;4969659;28;20051;-36
2023/06/15 12:05:06;;;;;;;3.20;1.10;;;29.40;99.90;;;;;;4989845;28;20054;-37
2023/06/15 12:07:32;;;;;;;3.88;1.60;;;29.40;99.90;;;;;;4990411;28;20061;-37
2023/06/15 12:10:02;;;;;;;1.52;1.00;;;29.40;99.90;;;;;;4969911;28;20518;-35
2023/06/15 12:12:32;;;;;;;2.17;1.15;;;29.40;99.90;;;;;;4968532;28;20100;-37
2023/06/15 12:15:05;;;;;;;1.50;1.02;;;29.30;99.90;;;;;;4979592;28;20496;-37
2023/06/15 12:17:35;;;;;;;3.83;1.20;;;29.50;99.90;;;;;;4980206;28;20145;-35
2023/06/15 12:20:09;;;;;;;3.72;1.20;;;29.50;99.90;;;;;;4986739;28;20492;-36
2023/06/15 12:22:36;;;;;;;3.28;1.25;;;29.50;99.90;;;;;;4979884;28;20046;-35
2023/06/15 12:25:03;;;;;;;1.95;1.00;;;29.60;99.90;;;;;;4986408;28;20046;-36
2023/06/15 12:27:31;;;;;;;2.58;1.13;;;29.70;99.90;;;;;;4989038;28;20042;-35
2023/06/15 12:30:11;;;;;;;3.20;1.00;;;29.80;99.90;;;;;;4983939;28;20209;-36
2023/06/15 12:32:42;;;;;;;1.83;1.10;;;29.90;99.90;;;;;;4985276;28;20116;-35
2023/06/15 12:35:23;;;;;;;;;;;30.00;99.90;;;;;;4986134;28;20058;-36
2023/06/15 12:37:49;;;;;;;3.05;1.10;;;30.00;99.90;;;;;;4988442;28;19944;-36
2023/06/15 12:40:19;;;;;;;2.42;1.10;;;29.90;99.90;;;;;;4985494;28;20066;-35
2023/06/15 12:42:45;;;;;;;1.73;1.02;;;29.90;99.90;;;;;;4983032;28;20057;-35
2023/06/15 12:45:13;;;;;;;2.78;1.33;;;30.00;99.90;;;;;;4985873;28;20058;-35
2023/06/15 12:47:39;;;;;;;4.95;1.42;;;30.10;99.90;;;;;;4988682;28;20046;-35
2023/06/15 12:50:06;;;;;;;2.72;1.17;;;30.20;99.90;;;;;;4983794;28;20053;-35